createdAt,value
2022-09-01T00:25:43.796Z,1002.07
2022-09-01T00:54:51.948Z,1002.16
2022-09-01T01:24:00.307Z,1001.97
2022-09-01T01:53:12.341Z,1001.98
2022-09-01T02:21:46.094Z,1001.95
2022-09-01T02:50:59.557Z,1001.9
2022-09-01T03:20:11.880Z,1002.01
2022-09-01T03:49:27.106Z,1002.03
2022-09-01T04:18:33.992Z,1001.93
2022-09-01T04:47:45.263Z,1001.99
2022-09-01T05:16:56.502Z,1002.02
2022-09-01T05:46:07.841Z,1002.06
2022-09-01T06:15:03.699Z,1002.17
2022-09-01T06:44:19.481Z,1002.35
2022-09-01T07:14:15.032Z,1002.47
2022-09-01T08:11:05.665Z,1002.45
2022-09-01T08:39:34.647Z,1002.43
2022-09-01T09:08:55.942Z,1002.28
2022-09-01T09:38:06.410Z,1002.01
2022-09-01T10:07:19.600Z,1001.74
2022-09-01T10:36:08.440Z,1001.54
2022-09-01T11:04:57.324Z,1001.24
2022-09-01T11:33:55.596Z,1001.03
2022-09-01T12:03:14.924Z,1000.77
2022-09-01T12:32:06.562Z,1000.65
2022-09-01T13:01:04.084Z,1000.46
2022-09-01T13:30:05.768Z,1000.16
2022-09-01T13:59:12.280Z,999.9
2022-09-01T14:28:23.481Z,999.61
2022-09-01T14:57:36.523Z,999.28
2022-09-01T15:25:47.126Z,999.28
2022-09-01T15:54:55.683Z,999.2
2022-09-01T16:24:06.186Z,999.1
2022-09-01T16:52:35.883Z,998.98
2022-09-01T17:21:28.581Z,999.07
2022-09-01T17:50:18.093Z,999.21
2022-09-01T18:19:22.790Z,999.42
2022-09-01T18:48:25.365Z,999.6
2022-09-01T19:17:25.835Z,999.77
2022-09-01T19:46:32.822Z,999.89
2022-09-01T20:15:32.319Z,999.93
2022-09-01T20:44:40.975Z,999.71
2022-09-01T21:13:56.622Z,999.74
